Tiempo atmosférico en la estación meteorológica de Bera, Navarra (78 m.)



Fecha
DESCASC
Temp. máxima en grados centígrados (hora)
DESCASC
Temp. mínima en grados centígrados (hora)
DESCASC
Temp. media en grados centígrados
DESCASC
Racha de viento máxima en m/sg (hora)
DESCASC
Velocidad máxima media en intervalos de 10 minutos(hora)
DESCASC
Precipitaciones diarias en mm
DESCASC
Precipitaciones de 00:00 a 06:00 en mm
DESCASC
Precipitaciones de 06:00 a 12:00 en mm
DESCASC
Precipitaciones de 12:00 a 18:00 en mm
DESCASC
Precipitaciones de 18:00 a 24:00 en mm
DESCASC
22-08-2019 26.5 (17:20) 13.7 (02:00) 20.1 7.22 (19:00) 3.33 (19:10) 0 0 0 0 0
21-08-2019 26.6 (17:20) 12.8 (02:20) 19.7 6.67 (18:00) 2.78 (18:10) 0 0 0 0 0
20-08-2019 21.6 (14:00) 15.1 (23:59) 18.4 5.83 (14:20) 2.5 (14:20) 4 2.4 1.6 0 0
19-08-2019 22.1 (14:00) 16.2 (07:30) 19.2 5 (17:30) 2.22 (17:20) 2.6 0.8 0 0 1.8
18-08-2019 25.5 (12:30) 16.2 (00:00) 20.9 6.11 (20:30) 2.78 (13:30) 3.2 0 0 0.4 2.8
17-08-2019 30.3 (16:40) 14.3 (00:00) 22.3 5.83 (18:10) 2.78 (21:10) 0 0 0 0 0
16-08-2019 28.3 (16:20) 13.6 (00:00) 20.9 6.39 (16:30) 3.33 (16:50) 0 0 0 0 0
15-08-2019 23.4 (17:10) 13.8 (00:00) 18.6 5.83 (15:30) 2.78 (14:10) 5.8 0 5.6 0.2 0
14-08-2019 27.2 (14:40) 12.2 (00:00) 19.7 5.83 (16:00) 3.06 (18:10) 0 0 0 0 0
13-08-2019 22.6 (16:50) 13 (00:00) 17.8 6.11 (18:00) 2.5 (17:20) 0 0 0 0 0
12-08-2019 21.8 (15:50) 15.2 (00:00) 18.5 8.06 (13:30) 3.61 (13:30) 14.8 3.2 0.2 0 11.4
11-08-2019 22 (16:00) 17 (00:00) 19.5 4.72 (18:30) 2.22 (18:30) 23.2 8.4 14.8 0 0
10-08-2019 23.1 (14:10) 18.6 (00:00) 20.9 3.89 (16:10) 1.94 (16:10) 0 0 0 0 0
09-08-2019 31.5 (11:10) 19.2 (00:00) 25.4 7.78 (11:30) 3.89 (11:30) 5 0 0 0 5
08-08-2019 34.7 (17:00) 18.7 (00:00) 26.7 6.11 (10:20) 2.78 (16:00) 0 0 0 0 0
07-08-2019 27.5 (17:20) 18.3 (00:00) 22.9 5 (18:00) 2.22 (16:20) 22 22 0 0 0
06-08-2019 27.2 (14:30) 19 (00:00) 23.1 5.28 (14:40) 2.78 (14:40) 0.6 0.6 0 0 0
05-08-2019 24.3 (13:40) 19 (00:00) 21.6 4.17 (15:20) 1.67 (14:40) 0.6 0 0.6 0 0
04-08-2019 24.8 (14:00) 18 (00:00) 21.4 4.72 (15:20) 2.22 (15:20) 0 0 0 0 0
03-08-2019 30.4 (16:00) 15.9 (00:00) 23.1 7.78 (18:00) 3.89 (17:20) 0 0 0 0 0
02-08-2019 25.5 (17:20) 16.8 (00:00) 21.1 5.83 (17:50) 2.78 (17:10) 0 0 0 0 0
01-08-2019 26.1 (14:20) 14.7 (00:00) 20.4 7.22 (15:00) 3.33 (14:50) 34.2 0 34.2 0 0
31-07-2019 24.6 (16:20) 12.3 (00:00) 18.5 6.39 (17:30) 3.06 (17:30) 0 0 0 0 0
30-07-2019 23.1 (16:10) 13.5 (00:00) 18.3 7.5 (12:30) 3.33 (14:50) 4 0.2 3.6 0.2 0
29-07-2019 26.7 (12:30) 11.2 (00:00) 19 7.78 (13:40) 4.44 (13:40) 0 0 0 0 0
28-07-2019 23.2 (18:20) 13.9 (00:00) 18.6 5 (17:20) 2.5 (16:50) 11.2 9.2 2 0 0
27-07-2019 18.6 (17:10) 16 (00:00) 17.3 5.56 (19:10) 2.22 (18:20) 32.4 1.6 11.4 12.8 6.6
26-07-2019 22.5 (12:00) 17.8 (00:00) 20.1 7.5 (12:30) 3.89 (12:30) 15.8 1.8 11.8 0.6 1.6

Gráficas

Temp. máximas Temp. mínimas Temp. medias Precipitaciones Rachas de viento máximas Velocidades máximas media en intervalos de 10 minutos

Datos horarios

Fecha y hora oficial Temperatura (ºC) Velocidad del viento (km/h) Dirección del viento Racha (km/h) Dirección de racha Precipitación (mm) Presión (hPa) Tendencia (hPa) Humedad (%)
2019-08-24 23:00:00 21.2 2 Sudoeste 6 Oeste 0 -- -- 87
2019-08-24 22:00:00 21.8 0 Calma 8 Oeste 0 -- -- 85
2019-08-24 21:00:00 22.3 0 Calma 10 Norte 0 -- -- 83
2019-08-24 20:00:00 23.2 4 Norte 9 Nordeste 0 -- -- 81
2019-08-24 19:00:00 24.5 4 Noroeste 18 Nordeste 0 -- -- 77
2019-08-24 18:00:00 25.7 10 Norte 21 Nordeste 0 -- -- 74
2019-08-24 17:00:00 26.8 10 Norte 28 Noroeste 0 -- -- 71
2019-08-24 16:00:00 28.2 12 Noroeste 24 Noroeste 0 -- -- 70
2019-08-24 15:00:00 28.7 12 Noroeste 24 Noroeste 0 -- -- 68
2019-08-24 14:00:00 30.1 11 Noroeste 22 Noroeste 0 -- -- 60
2019-08-24 13:00:00 32.5 2 Este 10 Sur 0 -- -- 40
2019-08-24 12:00:00 30.6 0 Calma 0 Calma 0 -- -- 47
2019-08-24 11:00:00 26.4 0 Calma 0 Calma 0 -- -- 72
2019-08-24 10:00:00 21.2 0 Calma 0 Calma 0 -- -- 83
2019-08-24 09:00:00 16.4 0 Calma 0 Calma 0 -- -- 98
2019-08-24 08:00:00 14.4 0 Calma 0 Calma 0 -- -- 97
2019-08-24 07:00:00 14.3 0 Calma -- -- 0 -- -- 96
2019-08-24 06:00:00 14.6 0 Calma -- -- 0 -- -- 96
2019-08-24 05:00:00 15 0 Calma -- -- 0 -- -- 95
2019-08-24 04:00:00 15.7 0 Calma 0 Calma 0 -- -- 95
2019-08-24 03:00:00 15.8 0 Calma -- -- 0 -- -- 95
2019-08-24 02:00:00 16.2 0 Calma -- -- 0 -- -- 95
2019-08-24 01:00:00 16.8 0 Calma 0 Calma 0 -- -- 94
2019-08-24 00:00:00 17.5 0 Calma 0 Calma 0 -- -- 92
2019-08-23 23:00:00 18.6 0 Calma 2 Sur 0 -- -- 90
2019-08-23 22:00:00 20.3 0 Calma 4 Este 0 -- -- 87
2019-08-23 21:00:00 22.9 0 Calma 4 Noroeste 0 -- -- 80
2019-08-23 20:00:00 27.3 2 Noroeste 7 Sudeste 0 -- -- 66
2019-08-23 19:00:00 30.4 3 Sudeste 14 Nordeste 0 -- -- 54
2019-08-23 18:00:00 31.7 5 Este 18 Sudeste 0 -- -- 50
2019-08-23 17:00:00 33.4 5 Este 12 Nordeste 0 -- -- 48
2019-08-23 16:00:00 33.8 2 Nordeste 8 Sur 0 -- -- 31
2019-08-23 15:00:00 32.8 5 Sudoeste 13 Sudoeste 0 -- -- 36
2019-08-23 14:00:00 31.3 3 Nordeste 14 Este 0 -- -- 41
2019-08-23 13:00:00 29 4 Sudeste 10 Este 0 -- -- 48
2019-08-23 12:00:00 23.4 0 Calma 4 Oeste 0 -- -- 71
2019-08-23 11:00:00 18.6 0 Calma 5 Oeste 0 -- -- 84
2019-08-23 10:00:00 14 2 Nordeste 5 Este 0 -- -- 96
2019-08-23 09:00:00 12.9 0 Calma 3 Sur 0 -- -- 98
2019-08-23 08:00:00 12.5 0 Calma 5 Este 0 -- -- 98
2019-08-23 07:00:00 12.3 0 Calma 4 Sudeste 0 -- -- 97
2019-08-23 06:00:00 12.7 0 Calma 3 Este 0 -- -- 97
2019-08-23 05:00:00 13 0 Calma 3 Sudeste 0 -- -- 97
2019-08-23 04:00:00 13.3 0 Calma 4 Sudeste 0 -- -- 97
2019-08-23 03:00:00 12.8 0 Calma 2 Sudeste 0 -- -- 96
2019-08-23 02:00:00 12.6 0 Calma 2 Sudeste 0 -- -- 95
2019-08-23 01:00:00 13.3 0 Calma 3 Sudeste 0 -- -- 94
2019-08-23 00:00:00 14.1 0 Calma 2 Sudeste 0 -- -- 93
2019-08-22 23:00:00 15.3 0 Calma 3 Sudeste 0 -- -- 91
2019-08-22 22:00:00 16.7 0 Calma 4 Sudeste 0 -- -- 88
2019-08-22 21:00:00 19.6 0 Calma 10 Noroeste 0 -- -- 81
2019-08-22 20:00:00 22.2 4 Noroeste 26 Noroeste 0 -- -- 72
2019-08-22 19:00:00 23.8 11 Norte 26 Noroeste 0 -- -- 68
2019-08-22 18:00:00 26.1 9 Noroeste 18 Noroeste 0 -- -- 67
2019-08-22 17:00:00 26.3 6 Norte 18 Noroeste 0 -- -- 66
2019-08-22 16:00:00 25.8 9 Noroeste 17 Noroeste 0 -- -- 65
2019-08-22 15:00:00 25.8 8 Norte 17 Noroeste 0 -- -- 61
2019-08-22 14:00:00 25.3 7 Norte 18 Norte 0 -- -- 64
2019-08-22 13:00:00 24.7 6 Nordeste 15 Nordeste 0 -- -- 63
2019-08-22 12:00:00 21.3 0 Calma 0 Calma 0 -- -- 76
2019-08-22 11:00:00 17 0 Calma 0 Calma 0 -- -- 89
2019-08-22 10:00:00 15 0 Calma 0 Calma 0 -- -- 93
2019-08-22 09:00:00 14.4 0 Calma 0 Calma 0 -- -- 95
2019-08-22 08:00:00 14.3 0 Calma 0 Calma 0 -- -- 95
2019-08-22 07:00:00 14.4 0 Calma 0 Calma 0 -- -- 95
2019-08-22 06:00:00 14.4 0 Calma 0 Calma 0 -- -- 96
2019-08-22 05:00:00 14.4 0 Calma 0 Calma 0 -- -- 96
2019-08-22 04:00:00 14.3 0 Calma 0 Calma 0 -- -- 96
2019-08-22 03:00:00 14.2 0 Calma 0 Calma 0 -- -- 97
2019-08-22 02:00:00 13.7 0 Calma 2 Sudeste 0 -- -- 95
2019-08-22 01:00:00 14.2 0 Calma 2 Sudeste 0 -- -- 94
2019-08-22 00:00:00 15.1 0 Calma 4 Sudeste 0 -- -- 92
2019-08-21 23:00:00 16.1 0 Calma 3 Sudeste 0 -- -- 91
2019-08-21 22:00:00 17.3 0 Calma 5 Sudeste 0 -- -- 87
2019-08-21 21:00:00 20.1 2 Sudeste 6 Norte 0 -- -- 75
2019-08-21 20:00:00 23.1 3 Noroeste 14 Norte 0 -- -- 61
2019-08-21 19:00:00 24 6 Norte 19 Noroeste 0 -- -- 61
2019-08-21 18:00:00 26 8 Norte 24 Noroeste 0 -- -- 62
2019-08-21 17:00:00 26.3 9 Este 19 Nordeste 0 -- -- 51
2019-08-21 16:00:00 25.8 6 Este 22 Nordeste 0 -- -- 54
2019-08-21 15:00:00 25.6 7 Nordeste 14 Nordeste 0 -- -- 52
2019-08-21 14:00:00 24.9 7 Nordeste 19 Norte 0 -- -- 54
2019-08-21 13:00:00 23.8 3 Sur 6 Sudeste 0 -- -- 65
2019-08-21 12:00:00 21.1 0 Calma 6 Oeste 0 -- -- 73
2019-08-21 11:00:00 18.8 2 Oeste 5 Oeste 0 -- -- 79
2019-08-21 10:00:00 15 2 Oeste 5 Sudoeste 0 -- -- 94
2019-08-21 09:00:00 13.6 2 Nordeste 4 Nordeste 0 -- -- 96
2019-08-21 08:00:00 13.2 0 Calma 3 Sur 0 -- -- 97
2019-08-21 07:00:00 13.3 0 Calma 6 Oeste 0 -- -- 97
2019-08-21 06:00:00 13.5 0 Calma 4 Oeste 0 -- -- 97
2019-08-21 05:00:00 13.6 0 Calma 3 Oeste 0 -- -- 97
2019-08-21 04:00:00 13.6 0 Calma 0 Calma 0 -- -- 97
2019-08-21 03:00:00 13 0 Calma 0 Calma 0 -- -- 96
2019-08-21 02:00:00 13 0 Calma 2 Este 0 -- -- 95
2019-08-21 01:00:00 13.8 0 Calma 4 Sudeste 0 -- -- 93
2019-08-21 00:00:00 15.1 2 Sudeste 4 Sudeste 0 -- -- 93
2019-08-20 23:00:00 16.1 0 Calma 3 Sur 0 -- -- 92
2019-08-20 22:00:00 17.2 0 Calma 4 Sudeste 0 -- -- 88
2019-08-20 21:00:00 18.7 0 Calma 8 Oeste 0 -- -- 80
2019-08-20 20:00:00 20.2 0 Calma 10 Noroeste 0 -- -- 73
2019-08-20 19:00:00 20.7 2 Norte 16 Norte 0 -- -- 73
2019-08-20 18:00:00 20.9 6 Norte 19 Norte 0 -- -- 74
2019-08-20 17:00:00 21.2 7 Norte 19 Noroeste 0 -- -- 71
2019-08-20 16:00:00 20.6 4 Norte 15 Noroeste 0 -- -- 68
2019-08-20 15:00:00 21.1 6 Norte 21 Noroeste 0 -- -- 69
2019-08-20 14:00:00 21.6 5 Norte 14 Noroeste 0 -- -- 66
2019-08-20 13:00:00 20.2 4 Norte 12 Noroeste 0 -- -- 72
2019-08-20 12:00:00 19.6 0 Calma 5 Noroeste 0 -- -- 79
2019-08-20 11:00:00 17.9 0 Calma 2 Norte 0 -- -- 89
2019-08-20 10:00:00 16.2 0 Calma 4 Oeste 0 -- -- 95
2019-08-20 09:00:00 15.8 0 Calma 5 Sur 0 -- -- 97
2019-08-20 08:00:00 15.6 3 Sur 7 Sudoeste 0.8 -- -- 96
2019-08-20 07:00:00 15.6 0 Calma 5 Oeste 0.8 -- -- 96
2019-08-20 06:00:00 15.8 0 Calma 6 Sur 1.6 -- -- 96
2019-08-20 05:00:00 15.9 0 Calma 5 Sudoeste 0.4 -- -- 95
2019-08-20 04:00:00 16.2 0 Calma 5 Sudoeste 0.4 -- -- 96
2019-08-20 03:00:00 16.4 3 Oeste 6 Oeste 0 -- -- 96
2019-08-20 02:00:00 16.3 0 Calma 4 Oeste 0 -- -- 95
2019-08-20 01:00:00 16.6 0 Calma 5 Sudoeste 0 -- -- 95
2019-08-20 00:00:00 17 0 Calma 5 Sudoeste 0 -- -- 94
2019-08-19 23:00:00 17.7 3 Norte 9 Nordeste 1.8 -- -- 89
2019-08-19 22:00:00 18.1 2 Nordeste 6 Noroeste 0 -- -- 88
2019-08-19 21:00:00 18.5 0 Calma 7 Este 0 -- -- 85
2019-08-19 20:00:00 19.3 0 Calma 5 Sur 0 -- -- 80
2019-08-19 19:00:00 20.1 2 Sur 7 Nordeste 0 -- -- 78
2019-08-19 18:00:00 20.9 2 Nordeste 18 Nordeste 0 -- -- 69
2019-08-19 17:00:00 21.1 4 Nordeste 13 Nordeste 0 -- -- 64
2019-08-19 16:00:00 21.8 4 Nordeste 16 Norte 0 -- -- 62
2019-08-19 15:00:00 21.8 7 Nordeste 15 Nordeste 0 -- -- 55
2019-08-19 14:00:00 22.1 5 Nordeste 13 Nordeste 0 -- -- 57
2019-08-19 13:00:00 21.4 4 Nordeste 14 Nordeste 0 -- -- 67
2019-08-19 12:00:00 20.9 4 Nordeste 9 Nordeste 0 -- -- 67
2019-08-19 11:00:00 19.3 0 Calma 3 Oeste 0 -- -- 83
2019-08-19 10:00:00 17.8 0 Calma 4 Sudeste 0 -- -- 93
2019-08-19 09:00:00 16.8 0 Calma 3 Oeste 0 -- -- 95
2019-08-19 08:00:00 16.3 0 Calma 0 Calma 0 -- -- 96
2019-08-19 07:00:00 16.3 0 Calma 3 Sudeste 0 -- -- 96
2019-08-19 06:00:00 16.4 0 Calma 2 Este 0 -- -- 96
2019-08-19 05:00:00 16.5 0 Calma 3 Sudeste 0 -- -- 96
2019-08-19 04:00:00 16.5 0 Calma 5 Oeste 0 -- -- 96
2019-08-19 03:00:00 16.6 0 Calma 5 Oeste 0.4 -- -- 96
2019-08-19 02:00:00 16.7 2 Sudoeste 6 Norte 0.4 -- -- 95
2019-08-19 01:00:00 17.1 0 Calma 3 Sudeste 0 -- -- 95
2019-08-19 00:00:00 17.2 2 Sur 5 Sudoeste 0.2 -- -- 95
2019-08-18 23:00:00 17.4 0 Calma 5 Sudoeste 0.2 -- -- 95
2019-08-18 22:00:00 17.5 3 Sudoeste 12 Oeste 0 -- -- 93
2019-08-18 21:00:00 18.4 4 Noroeste 22 Noroeste 0.8 -- -- 92
2019-08-18 20:00:00 19.7 0 Calma 15 Noroeste 1.4 -- -- 93
2019-08-18 19:00:00 20.4 2 Sudoeste 10 Oeste 0.2 -- -- 91
2019-08-18 18:00:00 21.1 4 Sudoeste 9 Noroeste 0 -- -- 87
2019-08-18 17:00:00 21.6 3 Noroeste 17 Oeste 0.4 -- -- 85
2019-08-18 16:00:00 23.4 4 Noroeste 11 Oeste 0 -- -- 77
2019-08-18 15:00:00 23.6 3 Oeste 14 Noroeste 0 -- -- 79
2019-08-18 14:00:00 23.6 6 Noroeste 20 Noroeste 0 -- -- 75
2019-08-18 13:00:00 24.7 8 Noroeste 19 Noroeste 0 -- -- 74
2019-08-18 12:00:00 24.6 9 Noroeste 21 Oeste 0 -- -- 75
2019-08-18 11:00:00 24.9 5 Noroeste 14 Oeste 0 -- -- 72
2019-08-18 10:00:00 21.3 2 Nordeste 4 Nordeste 0 -- -- 81
2019-08-18 09:00:00 17.7 0 Calma 3 Sudeste 0 -- -- 94
2019-08-18 08:00:00 16.4 3 Sudeste 5 Sudeste 0 -- -- 97
2019-08-18 07:00:00 16.5 0 Calma 5 Este 0 -- -- 97
2019-08-18 06:00:00 16.7 0 Calma 3 Este 0 -- -- 96
2019-08-18 05:00:00 16.5 0 Calma 3 Sudoeste 0 -- -- 96
2019-08-18 04:00:00 16.3 0 Calma 4 Este 0 -- -- 95
2019-08-18 03:00:00 16.5 0 Calma 3 Sudeste 0 -- -- 94
2019-08-18 02:00:00 17 0 Calma 3 Sudeste 0 -- -- 93
2019-08-18 01:00:00 17.5 0 Calma 4 Sudeste 0 -- -- 92
2019-08-18 00:00:00 18.1 0 Calma 5 Sudeste 0 -- -- 91
2019-08-17 23:00:00 19.2 0 Calma 4 Sudeste 0 -- -- 86
2019-08-17 22:00:00 21.6 0 Calma 19 Oeste 0 -- -- 76
2019-08-17 21:00:00 23.4 5 Noroeste 15 Noroeste 0 -- -- 74
2019-08-17 20:00:00 25.6 6 Noroeste 16 Noroeste 0 -- -- 65
2019-08-17 19:00:00 27.2 6 Norte 21 Norte 0 -- -- 62
2019-08-17 18:00:00 28.6 9 Norte 19 Norte 0 -- -- 57
2019-08-17 17:00:00 30.1 6 Sudeste 12 Sudeste 0 -- -- 52
2019-08-17 16:00:00 29.7 5 Norte 19 Noroeste 0 -- -- 52
2019-08-17 15:00:00 29.2 4 Norte 12 Sudeste 0 -- -- 50
2019-08-17 14:00:00 28.5 4 Sudeste 10 Sudeste 0 -- -- 54
2019-08-17 13:00:00 26.9 2 Norte 6 Sur 0 -- -- 59
2019-08-17 12:00:00 24.2 2 Sur 5 Sudoeste 0 -- -- 60
2019-08-17 11:00:00 21.3 0 Calma 4 Nordeste 0 -- -- 72
2019-08-17 10:00:00 17.5 0 Calma 4 Sur 0 -- -- 85
2019-08-17 09:00:00 14.7 2 Este 4 Este 0 -- -- 97
2019-08-17 08:00:00 14.4 2 Noroeste 6 Noroeste 0 -- -- 97
2019-08-17 07:00:00 14.6 2 Sudeste 5 Este 0 -- -- 97
2019-08-17 06:00:00 14.9 0 Calma 2 Nordeste 0 -- -- 97
2019-08-17 05:00:00 15.1 0 Calma 3 Nordeste 0 -- -- 97
2019-08-17 04:00:00 15 0 Calma 5 Norte 0 -- -- 95
2019-08-17 03:00:00 14.7 0 Calma 3 Sur 0 -- -- 95
2019-08-17 02:00:00 14.9 0 Calma 6 Sur 0 -- -- 94
2019-08-17 01:00:00 15.7 0 Calma 4 Sudeste 0 -- -- 93
2019-08-17 00:00:00 17 0 Calma 4 Este 0 -- -- 92
2019-08-16 23:00:00 18.3 0 Calma 5 Sudeste 0 -- -- 90
2019-08-16 22:00:00 19.6 0 Calma 6 Sudeste 0 -- -- 86
2019-08-16 21:00:00 22.5 3 Norte 11 Norte 0 -- -- 76
2019-08-16 20:00:00 24.9 2 Norte 10 Noroeste 0 -- -- 73
2019-08-16 19:00:00 25.3 5 Noroeste 19 Noroeste 0 -- -- 70
2019-08-16 18:00:00 26.5 10 Noroeste 23 Noroeste 0 -- -- 66
2019-08-16 17:00:00 27.5 10 Noroeste 23 Noroeste 0 -- -- 64
2019-08-16 16:00:00 28 6 Norte 17 Noroeste 0 -- -- 63
2019-08-16 15:00:00 27.6 6 Norte 16 Noroeste 0 -- -- 61
2019-08-16 14:00:00 26.8 3 Sudoeste 7 Noroeste 0 -- -- 58
2019-08-16 13:00:00 24.2 3 Sudoeste 7 Sur 0 -- -- 66
2019-08-16 12:00:00 21.7 3 Oeste 5 Oeste 0 -- -- 73
2019-08-16 11:00:00 18.3 2 Norte 5 Oeste 0 -- -- 80
2019-08-16 10:00:00 15.2 0 Calma 5 Oeste 0 -- -- 91
2019-08-16 09:00:00 14.1 0 Calma 5 Oeste 0 -- -- 94
2019-08-16 08:00:00 13.8 2 Noroeste 5 Este 0 -- -- 95
2019-08-16 07:00:00 13.7 0 Calma 6 Sudoeste 0 -- -- 96
2019-08-16 06:00:00 13.9 3 Oeste 6 Oeste 0 -- -- 96
2019-08-16 05:00:00 14.1 0 Calma 4 Oeste 0 -- -- 96
2019-08-16 04:00:00 14.2 0 Calma 4 Norte 0 -- -- 96
2019-08-16 03:00:00 14.3 0 Calma 3 Sudoeste 0 -- -- 97
2019-08-16 02:00:00 14.3 0 Calma 3 Nordeste 0 -- -- 96
2019-08-16 01:00:00 13.8 0 Calma 2 Nordeste 0 -- -- 95
2019-08-16 00:00:00 13.8 0 Calma 2 Sudeste 0 -- -- 93
2019-08-15 23:00:00 14.8 0 Calma 4 Sudeste 0 -- -- 92
2019-08-15 22:00:00 16.1 0 Calma 4 Sudeste 0 -- -- 89
2019-08-15 21:00:00 18.2 2 Sudeste 6 Noroeste 0 -- -- 83
2019-08-15 20:00:00 20.9 3 Norte 12 Noroeste 0 -- -- 67
2019-08-15 19:00:00 21.7 5 Noroeste 18 Noroeste 0 -- -- 62
2019-08-15 18:00:00 22.6 6 Norte 21 Noroeste 0 -- -- 62
2019-08-15 17:00:00 23.3 8 Norte 20 Noroeste 0 -- -- 57
2019-08-15 16:00:00 22.8 8 Norte 21 Noroeste 0 -- -- 62
2019-08-15 15:00:00 21.8 6 Norte 19 Noroeste 0 -- -- 69
2019-08-15 14:00:00 22 6 Norte 14 Noroeste 0 -- -- 72
2019-08-15 13:00:00 20.8 3 Noroeste 13 Noroeste 0.2 -- -- 82
2019-08-15 12:00:00 20.9 5 Noroeste 13 Noroeste 0 -- -- 80
2019-08-15 11:00:00 19.5 4 Oeste 13 Noroeste 0 -- -- 88
2019-08-15 10:00:00 19.2 0 Calma 12 Noroeste 0.2 -- -- 92
2019-08-15 09:00:00 18.6 0 Calma 10 Oeste 0.2 -- -- 95
2019-08-15 08:00:00 18.5 3 Oeste 15 Oeste 0.6 -- -- 94
2019-08-15 07:00:00 18.2 0 Calma 3 Sur 4.6 -- -- 96
2019-08-15 06:00:00 18 0 Calma 0 Calma 0 -- -- 95
2019-08-15 05:00:00 18 0 Calma 0 Calma 0 -- -- 94
2019-08-15 04:00:00 18.7 0 Calma 0 Calma 0 -- -- 93
2019-08-15 03:00:00 18.7 0 Calma 0 Calma 0 -- -- 93
2019-08-15 02:00:00 18.8 0 Calma 3 Norte 0 -- -- 91
2019-08-15 01:00:00 19 0 Calma 3 Este 0 -- -- 90
2019-08-15 00:00:00 19.2 0 Calma 6 Sudeste 0 -- -- 87
2019-08-14 23:00:00 19.3 0 Calma 4 Sur 0 -- -- 84
2019-08-14 22:00:00 20 0 Calma 6 Sudeste 0 -- -- 77
2019-08-14 21:00:00 21 2 Sudeste 5 Sudeste 0 -- -- 73
2019-08-14 20:00:00 23.3 3 Noroeste 16 Noroeste 0 -- -- 57
2019-08-14 19:00:00 24.5 5 Norte 19 Noroeste 0 -- -- 44
2019-08-14 18:00:00 25.8 8 Noroeste 20 Oeste 0 -- -- 42
2019-08-14 17:00:00 25.9 7 Nordeste 20 Nordeste 0 -- -- 52
2019-08-14 16:00:00 26.5 8 Norte 21 Noroeste 0 -- -- 48
2019-08-14 15:00:00 27.1 8 Norte 19 Noroeste 0 -- -- 49
2019-08-14 14:00:00 26.5 5 Noroeste 11 Oeste 0 -- -- 50
2019-08-14 13:00:00 24.9 2 Sudeste 5 Sur 0 -- -- 48
2019-08-14 12:00:00 22 0 Calma 5 Sudoeste 0 -- -- 66
2019-08-14 11:00:00 19.4 2 Este 8 Oeste 0 -- -- 72
2019-08-14 10:00:00 16.1 0 Calma 3 Oeste 0 -- -- 87
2019-08-14 09:00:00 13.7 0 Calma 4 Noroeste 0 -- -- 93
2019-08-14 08:00:00 12.7 0 Calma 4 Sur 0 -- -- 96
2019-08-14 07:00:00 12.6 0 Calma 5 Oeste 0 -- -- 95
2019-08-14 06:00:00 12.7 5 Oeste 9 Oeste 0 -- -- 96
2019-08-14 05:00:00 13 0 Calma 0 Calma 0 -- -- 96
2019-08-14 04:00:00 13 0 Calma 0 Calma 0 -- -- 96
2019-08-14 03:00:00 13 0 Calma 0 Calma 0 -- -- 97
2019-08-14 02:00:00 12.4 0 Calma 0 Calma 0 -- -- 96
2019-08-14 01:00:00 12.4 0 Calma 2 Sudeste 0 -- -- 94
2019-08-14 00:00:00 13 0 Calma 2 Sudeste 0 -- -- 93
2019-08-13 23:00:00 13.9 0 Calma 4 Este 0 -- -- 91
2019-08-13 22:00:00 15.4 2 Sudeste 5 Oeste 0 -- -- 87
2019-08-13 21:00:00 18.2 0 Calma 12 Noroeste 0 -- -- 76
2019-08-13 20:00:00 19.9 5 Noroeste 14 Norte 0 -- -- 65
2019-08-13 19:00:00 20.7 8 Norte 19 Noroeste 0 -- -- 61
2019-08-13 18:00:00 21.4 9 Norte 22 Norte 0 -- -- 58
2019-08-13 17:00:00 22.5 6 Norte 19 Noroeste 0 -- -- 60
2019-08-13 16:00:00 22.1 8 Noroeste 17 Noroeste 0 -- -- 61
2019-08-13 15:00:00 21.7 8 Norte 18 Norte 0 -- -- 57
2019-08-13 14:00:00 21.6 6 Norte 15 Noroeste 0 -- -- 63
2019-08-13 13:00:00 20.8 0 Calma 0 Calma 0 -- -- 64
2019-08-13 12:00:00 18.7 0 Calma -- -- 0 -- -- 83
2019-08-13 11:00:00 16.4 0 Calma -- -- 0 -- -- 93
2019-08-13 10:00:00 15.2 0 Calma -- -- 0 -- -- 96
2019-08-13 09:00:00 14.8 0 Calma -- -- 0 -- -- 97
2019-08-13 08:00:00 14.5 0 Calma 0 Calma 0 -- -- 97
2019-08-13 07:00:00 14.6 0 Calma -- -- 0 -- -- 98
2019-08-13 06:00:00 14.7 0 Calma 0 Calma 0 -- -- 98
2019-08-13 05:00:00 14.9 0 Calma 2 Sudoeste 0 -- -- 97
2019-08-13 04:00:00 15.1 0 Calma 5 Oeste 0 -- -- 98
2019-08-13 03:00:00 15.2 0 Calma 3 Sur 0 -- -- 98
2019-08-13 02:00:00 15.1 0 Calma 4 Sudeste 0 -- -- 98
2019-08-13 01:00:00 14.9 0 Calma 4 Noroeste 0 -- -- 97
2019-08-13 00:00:00 15.7 0 Calma 4 Oeste 0 -- -- 97
2019-08-12 23:00:00 15.8 2 Noroeste 6 Noroeste 0.6 -- -- 97
2019-08-12 22:00:00 16 0 Calma 3 Sudoeste 1.8 -- -- 97
2019-08-12 21:00:00 16.1 0 Calma 6 Noroeste 2.2 -- -- 96
2019-08-12 20:00:00 16.1 2 Sudeste 8 Nordeste 2.8 -- -- 94
2019-08-12 19:00:00 17.2 4 Nordeste 26 Oeste 4 -- -- 83
2019-08-12 18:00:00 20.3 7 Noroeste 25 Noroeste 0 -- -- 70
2019-08-12 17:00:00 21.5 11 Oeste 23 Oeste 0 -- -- 65
2019-08-12 16:00:00 21.6 12 Oeste 28 Oeste 0 -- -- 64
2019-08-12 15:00:00 21 10 Oeste 27 Noroeste 0 -- -- 66
2019-08-12 14:00:00 19.3 5 Oeste 29 Noroeste 0 -- -- 73
2019-08-12 13:00:00 20.1 8 Oeste 22 Oeste 0 -- -- 77
2019-08-12 12:00:00 18.9 6 Oeste 25 Oeste 0 -- -- 77
2019-08-12 11:00:00 19 6 Oeste 17 Noroeste 0 -- -- 79
2019-08-12 10:00:00 17.2 0 Calma 2 Norte 0 -- -- 91
2019-08-12 09:00:00 16.1 0 Calma 0 Calma 0 -- -- 96
2019-08-12 08:00:00 15.3 0 Calma 0 Calma 0.2 -- -- 96
2019-08-12 07:00:00 15.5 0 Calma 4 Sudeste 0 -- -- 95
2019-08-12 06:00:00 16 0 Calma 4 Sur 0 -- -- 95
2019-08-12 05:00:00 16.4 0 Calma 5 Este 2 -- -- 96
2019-08-12 04:00:00 16.6 0 Calma 4 Noroeste 0.4 -- -- 96
2019-08-12 03:00:00 16.7 0 Calma 2 Sudeste 0 -- -- 95
2019-08-12 02:00:00 17.1 0 Calma 9 Sudoeste 0.8 -- -- 95
2019-08-12 01:00:00 17.2 0 Calma 3 Sur 0 -- -- 93
2019-08-12 00:00:00 17.4 0 Calma 4 Nordeste 0 -- -- 92
2019-08-11 23:00:00 17.2 0 Calma 6 Sudeste 0 -- -- 92
2019-08-11 22:00:00 17.6 0 Calma 4 Oeste 0 -- -- 90
2019-08-11 21:00:00 18.6 4 Oeste 14 Oeste 0 -- -- 83
2019-08-11 20:00:00 19.1 7 Oeste 17 Noroeste 0 -- -- 80
2019-08-11 19:00:00 19.9 5 Noroeste 17 Norte 0 -- -- 79
2019-08-11 18:00:00 20.7 7 Norte 15 Noroeste 0 -- -- 78
2019-08-11 17:00:00 20.8 7 Noroeste 15 Norte 0 -- -- 80
2019-08-11 16:00:00 22 2 Este 12 Sudeste 0 -- -- 75
2019-08-11 15:00:00 19.7 3 Este 14 Este 0 -- -- 82
2019-08-11 14:00:00 19 0 Calma 0 Calma 0 -- -- 85
2019-08-11 13:00:00 18.6 0 Calma 0 Calma 0 -- -- 89
2019-08-11 12:00:00 17.9 0 Calma 7 Este 0 -- -- 94
2019-08-11 11:00:00 17.1 5 Este 11 Este 0.2 -- -- 96
2019-08-11 10:00:00 17 0 Calma 5 Noroeste 2.6 -- -- 97
2019-08-11 09:00:00 17.3 0 Calma 8 Nordeste 6.6 -- -- 97
2019-08-11 08:00:00 17.5 0 Calma 6 Sudoeste 3.4 -- -- 97
2019-08-11 07:00:00 17.7 0 Calma 4 Este 2 -- -- 97
2019-08-11 06:00:00 17.9 0 Calma 6 Oeste 2.8 -- -- 96
2019-08-11 05:00:00 18 3 Sudoeste 6 Sudoeste 0 -- -- 96
2019-08-11 04:00:00 18.2 0 Calma 5 Sudoeste 1.8 -- -- 96
2019-08-11 03:00:00 18.2 0 Calma 6 Noroeste 1.2 -- -- 96
2019-08-11 02:00:00 18.4 3 Sudoeste 7 Sudoeste 2.4 -- -- 94
2019-08-11 01:00:00 18.9 0 Calma 9 Sudeste 0.2 -- -- 91
2019-08-11 00:00:00 19.3 0 Calma 0 Calma 0 -- -- 90
2019-08-10 23:00:00 19.5 0 Calma 3 Sur 0 -- -- 90
2019-08-10 22:00:00 19.9 0 Calma 6 Noroeste 0 -- -- 86
2019-08-10 21:00:00 20.7 2 Norte 11 Norte 0 -- -- 79
2019-08-10 20:00:00 21.2 3 Norte 9 Noroeste 0 -- -- 76
2019-08-10 19:00:00 21.4 6 Norte 13 Noroeste 0 -- -- 71
2019-08-10 18:00:00 21.4 6 Noroeste 13 Noroeste 0 -- -- 69
2019-08-10 17:00:00 22.4 4 Norte 14 Noroeste 0 -- -- 72
2019-08-10 16:00:00 22.9 0 Calma 2 Nordeste 0 -- -- 72
2019-08-10 15:00:00 22.3 0 Calma 2 Oeste 0 -- -- 76
2019-08-10 14:00:00 22.9 0 Calma 2 Norte 0 -- -- 76
2019-08-10 13:00:00 22.5 0 Calma 0 Calma 0 -- -- 70
2019-08-10 12:00:00 21.2 0 Calma 0 Calma 0 -- -- 80
2019-08-10 11:00:00 20.7 0 Calma -- -- 0 -- -- 82
2019-08-10 10:00:00 19.8 0 Calma -- -- 0 -- -- 94
2019-08-10 09:00:00 19.5 0 Calma -- -- 0 -- -- 96
2019-08-10 08:00:00 18.8 0 Calma -- -- 0 -- -- 96
2019-08-10 07:00:00 18.6 0 Calma -- -- 0 -- -- 96
2019-08-10 06:00:00 18.6 0 Calma 3 Oeste 0 -- -- 96
2019-08-10 05:00:00 18.8 2 Sudoeste 5 Oeste 0 -- -- 96
2019-08-10 04:00:00 18.9 0 Calma 4 Este 0 -- -- 96
2019-08-10 03:00:00 19 0 Calma 4 Sudeste 0 -- -- 96
2019-08-10 02:00:00 18.9 2 Sudeste 4 Sudeste 0 -- -- 96
2019-08-10 01:00:00 18.7 0 Calma 4 Sudoeste 0 -- -- 95
2019-08-10 00:00:00 19.6 0 Calma 6 Norte 0 -- -- 93
2019-08-09 23:00:00 20.3 3 Oeste 7 Sur 1 -- -- 93
2019-08-09 22:00:00 21.1 0 Calma 8 Sudoeste 4 -- -- 92
2019-08-09 21:00:00 22.7 5 Oeste 15 Oeste 0 -- -- 80
2019-08-09 20:00:00 22.9 0 Calma 5 Nordeste 0 -- -- 85
2019-08-09 19:00:00 23.2 3 Norte 7 Nordeste 0 -- -- 79
2019-08-09 18:00:00 23.5 3 Este 9 Este 0 -- -- 77
2019-08-09 17:00:00 23.9 4 Norte 14 Noroeste 0 -- -- 77
2019-08-09 16:00:00 24.2 7 Noroeste 17 Noroeste 0 -- -- 75
2019-08-09 15:00:00 24.3 8 Noroeste 20 Nordeste 0 -- -- 75
2019-08-09 14:00:00 25.1 8 Norte 26 Nordeste 0 -- -- 77
2019-08-09 13:00:00 26.2 9 Norte 26 Nordeste 0 -- -- 77
2019-08-09 12:00:00 27 14 Norte 28 Norte 0 -- -- 73
2019-08-09 11:00:00 31.1 4 Oeste 12 Oeste 0 -- -- 55
2019-08-09 10:00:00 27 0 Calma 8 Norte 0 -- -- 72
2019-08-09 09:00:00 22.9 2 Norte 8 Oeste 0 -- -- 84
2019-08-09 08:00:00 19.4 0 Calma 0 Calma 0 -- -- 95
2019-08-09 07:00:00 19.4 0 Calma 6 Sur 0 -- -- 93
2019-08-09 06:00:00 19.6 0 Calma 6 Noroeste 0 -- -- 95
2019-08-09 05:00:00 19.9 0 Calma 4 Sudeste 0 -- -- 95
2019-08-09 04:00:00 20.5 0 Calma 4 Este 0 -- -- 94
2019-08-09 03:00:00 21.1 0 Calma 4 Sudeste 0 -- -- 94
2019-08-09 02:00:00 21.4 0 Calma 6 Este 0 -- -- 94
2019-08-09 01:00:00 21.6 0 Calma 3 Sur 0 -- -- 93
2019-08-09 00:00:00 22.3 0 Calma 3 Sudeste 0 -- -- 92
2019-08-08 23:00:00 23.3 0 Calma 4 Sudeste 0 -- -- 90
2019-08-08 22:00:00 24.8 0 Calma 4 Sur 0 -- -- 85
2019-08-08 21:00:00 27.2 0 Calma 4 Noroeste 0 -- -- 77
2019-08-08 20:00:00 30.8 2 Norte 12 Nordeste 0 -- -- 64
2019-08-08 19:00:00 31.8 3 Este 10 Nordeste 0 -- -- 58
2019-08-08 18:00:00 33.1 7 Este 12 Este 0 -- -- 53
2019-08-08 17:00:00 34.7 8 Oeste 18 Noroeste 0 -- -- 47
2019-08-08 16:00:00 33.3 10 Oeste 22 Noroeste 0 -- -- 49
2019-08-08 15:00:00 33.2 2 Este 14 Sur 0 -- -- 45
2019-08-08 14:00:00 32.6 6 Sur 14 Sudoeste 0 -- -- 47
2019-08-08 13:00:00 31.2 5 Nordeste 16 Sur 0 -- -- 49
2019-08-08 12:00:00 30 9 Sur 17 Sur 0 -- -- 50
2019-08-08 11:00:00 28.4 6 Sur 22 Sudeste 0 -- -- 53
2019-08-08 10:00:00 25.4 5 Sudeste 21 Sudeste 0 -- -- 63
2019-08-08 09:00:00 20.4 0 Calma 0 Calma 0 -- -- 94
2019-08-08 08:00:00 18.8 0 Calma 0 Calma 0 -- -- 97
2019-08-08 07:00:00 18.9 0 Calma 5 Este 0 -- -- 97
2019-08-08 06:00:00 19 0 Calma 5 Este 0 -- -- 96
2019-08-08 05:00:00 19.7 0 Calma 2 Sudeste 0 -- -- 95
2019-08-08 04:00:00 20.2 0 Calma 3 Sudeste 0 -- -- 95
2019-08-08 03:00:00 20.6 0 Calma 3 Este 0 -- -- 94
2019-08-08 02:00:00 21.1 0 Calma 4 Este 0 -- -- 94
2019-08-08 01:00:00 21.2 0 Calma 4 Sudeste 0 -- -- 93
2019-08-08 00:00:00 21.4 0 Calma 4 Este 0 -- -- 93
2019-08-07 23:00:00 22.1 0 Calma 6 Este 0 -- -- 91
2019-08-07 22:00:00 22.7 0 Calma 4 Sudeste 0 -- -- 88
2019-08-07 21:00:00 24.3 0 Calma 5 Sudeste 0 -- -- 83
2019-08-07 20:00:00 26.5 2 Sudeste 13 Nordeste 0 -- -- 72
2019-08-07 19:00:00 27 5 Este 16 Sudeste 0 -- -- 68
2019-08-07 18:00:00 27.4 7 Este 18 Sudeste 0 -- -- 67
2019-08-07 17:00:00 27 6 Este 16 Noroeste 0 -- -- 68
2019-08-07 16:00:00 27.4 5 Nordeste 14 Noroeste 0 -- -- 69
2019-08-07 15:00:00 27 0 Calma 12 Norte 0 -- -- 68
2019-08-07 14:00:00 25.2 0 Calma 0 Calma 0 -- -- 70
2019-08-07 13:00:00 24.3 0 Calma 2 Sudoeste 0 -- -- 77
2019-08-07 12:00:00 23.5 0 Calma 0 Calma 0 -- -- 82
2019-08-07 11:00:00 23.3 0 Calma -- -- 0 -- -- 79
2019-08-07 10:00:00 21.3 0 Calma -- -- 0 -- -- 91
2019-08-07 09:00:00 19.2 0 Calma -- -- 0 -- -- 98
2019-08-07 08:00:00 18.6 0 Calma -- -- 0 -- -- 98
2019-08-07 07:00:00 18.5 0 Calma 4 Sudeste 0 -- -- 98
2019-08-07 06:00:00 18.4 0 Calma 4 Sudeste 0 -- -- 97
2019-08-07 05:00:00 18.6 0 Calma 6 Este 0 -- -- 97
2019-08-07 04:00:00 18.9 0 Calma 10 Sudoeste 0 -- -- 96
2019-08-07 03:00:00 19.5 2 Este 9 Nordeste 6.4 -- -- 96
2019-08-07 02:00:00 20 3 Oeste 9 Este 10.2 -- -- 95
2019-08-07 01:00:00 20.7 0 Calma 7 Sudeste 5.4 -- -- 91
2019-08-07 00:00:00 21 0 Calma 5 Sudoeste 0 -- -- 87
2019-08-06 23:00:00 21.3 0 Calma 6 Norte 0 -- -- 85
2019-08-06 22:00:00 22.2 4 Norte 11 Norte 0 -- -- 78
2019-08-06 21:00:00 22.6 4 Norte 12 Nordeste 0 -- -- 80
2019-08-06 20:00:00 23 6 Norte 16 Oeste 0 -- -- 78
2019-08-06 19:00:00 23.8 9 Noroeste 19 Noroeste 0 -- -- 78
2019-08-06 18:00:00 25 5 Noroeste 16 Noroeste 0 -- -- 75
2019-08-06 17:00:00 25.7 7 Noroeste 17 Oeste 0 -- -- 74
2019-08-06 16:00:00 26 9 Noroeste 19 Norte 0 -- -- 72
2019-08-06 15:00:00 26.2 8 Noroeste 19 Oeste 0 -- -- 70
2019-08-06 14:00:00 26.8 5 Noroeste 13 Noroeste 0 -- -- 73
2019-08-06 13:00:00 26.1 4 Noroeste 13 Oeste 0 -- -- 71
2019-08-06 12:00:00 25.3 0 Calma 0 Calma 0 -- -- 76
2019-08-06 11:00:00 24.1 0 Calma 0 Calma 0 -- -- 75
2019-08-06 10:00:00 21.9 0 Calma 0 Calma 0 -- -- 81
2019-08-06 09:00:00 20 0 Calma 0 Calma 0 -- -- 93
2019-08-06 08:00:00 19.1 0 Calma 0 Calma 0 -- -- 96
2019-08-06 07:00:00 19 0 Calma 2 Sur 0 -- -- 95
2019-08-06 06:00:00 19.4 0 Calma 5 Este 0.2 -- -- 94
2019-08-06 05:00:00 19.9 0 Calma 0 Calma 0.2 -- -- 96
2019-08-06 04:00:00 20 0 Calma 0 Calma 0 -- -- 95
2019-08-06 03:00:00 20.2 0 Calma 0 Calma 0 -- -- 95
2019-08-06 02:00:00 20.4 0 Calma 0 Calma 0.2 -- -- 94
2019-08-06 01:00:00 20.3 0 Calma 0 Calma 0 -- -- 94
2019-08-06 00:00:00 20.4 0 Calma 0 Calma 0 -- -- 93
2019-08-05 23:00:00 20.4 0 Calma 2 Noroeste 0 -- -- 92
2019-08-05 22:00:00 20.7 0 Calma 3 Sur 0 -- -- 91
2019-08-05 21:00:00 21.2 0 Calma 7 Noroeste 0 -- -- 89
2019-08-05 20:00:00 21.6 3 Norte 8 Norte 0 -- -- 84
2019-08-05 19:00:00 21.8 3 Noroeste 12 Noroeste 0 -- -- 85
2019-08-05 18:00:00 22.1 3 Norte 9 Norte 0 -- -- 82
2019-08-05 17:00:00 22.2 4 Norte 12 Noroeste 0 -- -- 81
2019-08-05 16:00:00 22.6 4 Norte 15 Noroeste 0 -- -- 82
2019-08-05 15:00:00 23.3 5 Norte 15 Nordeste 0 -- -- 81
2019-08-05 14:00:00 24.3 0 Calma 0 Calma 0 -- -- 74
2019-08-05 13:00:00 23.6 0 Calma 0 Calma 0 -- -- 78
2019-08-05 12:00:00 22.4 0 Calma 0 Calma 0 -- -- 84
2019-08-05 11:00:00 20.7 0 Calma 0 Calma 0 -- -- 92
2019-08-05 10:00:00 19.7 0 Calma 0 Calma 0 -- -- 95
2019-08-05 09:00:00 19.1 0 Calma 0 Calma 0.2 -- -- 96
2019-08-05 08:00:00 19.1 0 Calma 0 Calma 0.2 -- -- 95
2019-08-05 07:00:00 19.6 0 Calma 0 Calma 0.2 -- -- 95
2019-08-05 06:00:00 19.7 0 Calma 0 Calma 0 -- -- 95
2019-08-05 05:00:00 19.7 0 Calma 0 Calma 0 -- -- 95
2019-08-05 04:00:00 19.8 0 Calma 0 Calma 0 -- -- 94
2019-08-05 03:00:00 19.7 0 Calma 0 Calma 0 -- -- 94
2019-08-05 02:00:00 19.9 0 Calma 0 Calma 0 -- -- 94
2019-08-05 01:00:00 20 0 Calma 0 Calma 0 -- -- 94
2019-08-05 00:00:00 20.1 0 Calma 3 Sur 0 -- -- 93
2019-08-04 23:00:00 20.3 0 Calma 2 Sur 0 -- -- 92
2019-08-04 22:00:00 20.6 0 Calma 3 Sudoeste 0 -- -- 91
2019-08-04 21:00:00 20.9 3 Sur 6 Sudoeste 0 -- -- 89
2019-08-04 20:00:00 21.1 2 Sudoeste 5 Oeste 0 -- -- 88
2019-08-04 19:00:00 21.2 0 Calma 9 Noroeste 0 -- -- 88
2019-08-04 18:00:00 22 3 Norte 8 Noroeste 0 -- -- 82
2019-08-04 17:00:00 22.5 4 Norte 12 Nordeste 0 -- -- 77
2019-08-04 16:00:00 23 6 Norte 17 Noroeste 0 -- -- 75
2019-08-04 15:00:00 24 7 Norte 15 Noroeste 0 -- -- 75
2019-08-04 14:00:00 24.8 5 Norte 12 Norte 0 -- -- 74
2019-08-04 13:00:00 24.1 0 Calma 0 Calma 0 -- -- 74
2019-08-04 12:00:00 22.8 0 Calma 0 Calma 0 -- -- 78
2019-08-04 11:00:00 21.7 0 Calma 0 Calma 0 -- -- 85
2019-08-04 10:00:00 20.5 0 Calma 0 Calma 0 -- -- 92
2019-08-04 09:00:00 19.6 0 Calma -- -- 0 -- -- 94
2019-08-04 08:00:00 18.8 0 Calma -- -- 0 -- -- 96
2019-08-04 07:00:00 18.3 0 Calma 0 Calma 0 -- -- 96
2019-08-04 06:00:00 18.1 0 Calma -- -- 0 -- -- 96
2019-08-04 05:00:00 18.5 0 Calma 3 Sur 0 -- -- 95
2019-08-04 04:00:00 19.2 0 Calma 0 Calma 0 -- -- 95
2019-08-04 03:00:00 19 0 Calma 2 Sur 0 -- -- 95
2019-08-04 02:00:00 18.6 0 Calma 0 Calma 0 -- -- 95
2019-08-04 01:00:00 18.3 0 Calma 3 Sudeste 0 -- -- 94
2019-08-04 00:00:00 19 0 Calma 3 Sudeste 0 -- -- 92
2019-08-03 23:00:00 19.9 3 Sudeste 5 Sudeste 0 -- -- 89
2019-08-03 22:00:00 21.4 0 Calma 8 Noroeste 0 -- -- 84
2019-08-03 21:00:00 23.8 4 Noroeste 14 Noroeste 0 -- -- 76
2019-08-03 20:00:00 25 8 Noroeste 22 Noroeste 0 -- -- 71
2019-08-03 19:00:00 26 8 Noroeste 23 Noroeste 0 -- -- 69
2019-08-03 18:00:00 27.7 14 Noroeste 28 Norte 0 -- -- 68
2019-08-03 17:00:00 29.5 9 Norte 19 Noroeste 0 -- -- 66
2019-08-03 16:00:00 30.4 5 Sudeste 13 Sudeste 0 -- -- 58
2019-08-03 15:00:00 29.4 4 Este 17 Este 0 -- -- 58
2019-08-03 14:00:00 28.2 8 Sudeste 21 Sudeste 0 -- -- 62
2019-08-03 13:00:00 26.1 6 Nordeste 16 Nordeste 0 -- -- 69
2019-08-03 12:00:00 23.4 0 Calma 0 Calma 0 -- -- 76
2019-08-03 11:00:00 20.1 0 Calma 0 Calma 0 -- -- 84
2019-08-03 10:00:00 17.4 0 Calma 0 Calma 0 -- -- 92
2019-08-03 09:00:00 16.4 0 Calma 0 Calma 0 -- -- 95
2019-08-03 08:00:00 16 0 Calma 0 Calma 0 -- -- 96
2019-08-03 07:00:00 15.9 0 Calma 3 Sudoeste 0 -- -- 96
2019-08-03 06:00:00 15.9 3 Sudoeste 6 Sudoeste 0 -- -- 96
2019-08-03 05:00:00 16.4 3 Sudoeste 5 Sudoeste 0 -- -- 95
2019-08-03 04:00:00 16.8 0 Calma 2 Este 0 -- -- 95
2019-08-03 03:00:00 16.8 0 Calma 2 Nordeste 0 -- -- 95
2019-08-03 02:00:00 16.4 0 Calma 2 Sudeste 0 -- -- 95
2019-08-03 01:00:00 16.4 0 Calma 3 Sudeste 0 -- -- 92
2019-08-03 00:00:00 17.4 0 Calma 3 Sudeste 0 -- -- 90
2019-08-02 23:00:00 18.5 0 Calma 4 Sudeste 0 -- -- 89
2019-08-02 22:00:00 20.1 3 Sur 7 Norte 0 -- -- 85
2019-08-02 21:00:00 21.5 4 Noroeste 13 Noroeste 0 -- -- 78
2019-08-02 20:00:00 22.6 6 Norte 19 Norte 0 -- -- 74
2019-08-02 19:00:00 23.8 8 Norte 20 Norte 0 -- -- 71
2019-08-02 18:00:00 24.9 9 Noroeste 21 Noroeste 0 -- -- 68
2019-08-02 17:00:00 25.4 8 Norte 18 Noroeste 0 -- -- 66
2019-08-02 16:00:00 24.9 6 Norte 16 Norte 0 -- -- 68
2019-08-02 15:00:00 24.6 5 Noroeste 18 Noroeste 0 -- -- 66
2019-08-02 14:00:00 24.2 5 Norte 15 Noroeste 0 -- -- 68
2019-08-02 13:00:00 23.5 5 Noroeste 15 Noroeste 0 -- -- 70
2019-08-02 12:00:00 22.8 0 Calma 0 Calma 0 -- -- 72
2019-08-02 11:00:00 21.8 0 Calma 0 Calma 0 -- -- 81
2019-08-02 10:00:00 19.7 0 Calma 0 Calma 0 -- -- 91
2019-08-02 09:00:00 18.3 0 Calma 0 Calma 0 -- -- 95
2019-08-02 08:00:00 17.5 0 Calma 0 Calma 0 -- -- 96
2019-08-02 07:00:00 16.9 0 Calma 0 Calma 0 -- -- 96
2019-08-02 06:00:00 16.9 0 Calma 0 Calma 0 -- -- 94
2019-08-02 05:00:00 18.3 0 Calma 0 Calma 0 -- -- 94
2019-08-02 04:00:00 18.5 0 Calma 0 Calma 0 -- -- 94
2019-08-02 03:00:00 18.8 0 Calma 3 Sur 0 -- -- 93
2019-08-02 02:00:00 19 0 Calma 4 Norte 0 -- -- 92
2019-08-02 01:00:00 19.1 0 Calma 3 Sudeste 0 -- -- 91
2019-08-02 00:00:00 19.4 0 Calma 3 Sur 0 -- -- 90
2019-08-01 23:00:00 20 2 Sur 11 Norte 0 -- -- 87
2019-08-01 22:00:00 20.3 0 Calma 4 Nordeste 0 -- -- 84
2019-08-01 21:00:00 20.7 4 Noroeste 10 Noroeste 0 -- -- 81
2019-08-01 20:00:00 21.1 5 Oeste 14 Oeste 0 -- -- 80
2019-08-01 19:00:00 21.5 6 Norte 16 Norte 0 -- -- 79
2019-08-01 18:00:00 22.3 6 Norte 19 Nordeste 0 -- -- 79
2019-08-01 17:00:00 23 6 Norte 20 Noroeste 0 -- -- 72
2019-08-01 16:00:00 24.5 10 Noroeste 26 Nordeste 0 -- -- 72
2019-08-01 15:00:00 24.5 12 Norte 26 Nordeste 0 -- -- 72
2019-08-01 14:00:00 25.2 3 Sudoeste 10 Oeste 0 -- -- 70
2019-08-01 13:00:00 23.2 2 Sudoeste 5 Sudoeste 0 -- -- 74
2019-08-01 12:00:00 20.5 2 Norte 5 Noroeste 0 -- -- 86
2019-08-01 11:00:00 17.8 0 Calma 12 Noroeste 0.4 -- -- 97
2019-08-01 10:00:00 16.4 3 Este 9 Sur 2.4 -- -- 97
2019-08-01 09:00:00 16.5 4 Noroeste 18 Sudoeste 7.2 -- -- 97
2019-08-01 08:00:00 16.5 8 Sudoeste 19 Oeste 16.2 -- -- 96
2019-08-01 07:00:00 16.2 4 Oeste 19 Sudeste 8 -- -- 97
2019-08-01 06:00:00 15.5 0 Calma 0 Calma 0 -- -- 96
2019-08-01 05:00:00 15.4 0 Calma -- -- 0 -- -- 97
2019-08-01 04:00:00 15.2 0 Calma 0 Calma 0 -- -- 96
2019-08-01 03:00:00 14.8 0 Calma -- -- 0 -- -- 96
2019-08-01 02:00:00 14.9 0 Calma 0 Calma 0 -- -- 95
2019-08-01 01:00:00 15.4 0 Calma 0 Calma 0 -- -- 93
2019-08-01 00:00:00 16.1 0 Calma 3 Sudeste 0 -- -- 92
2019-07-31 23:00:00 16.9 0 Calma 4 Sudeste 0 -- -- 90
2019-07-31 22:00:00 18.2 0 Calma 13 Noroeste 0 -- -- 86
2019-07-31 21:00:00 20.3 3 Noroeste 18 Noroeste 0 -- -- 76
2019-07-31 20:00:00 21.2 7 Norte 16 Norte 0 -- -- 70
2019-07-31 19:00:00 21.7 9 Norte 19 Noroeste 0 -- -- 70
2019-07-31 18:00:00 22.9 9 Norte 23 Noroeste 0 -- -- 67
2019-07-31 17:00:00 24.4 5 Nordeste 17 Nordeste 0 -- -- 57
2019-07-31 16:00:00 24.3 6 Nordeste 18 Nordeste 0 -- -- 56
2019-07-31 15:00:00 23.5 7 Nordeste 22 Nordeste 0 -- -- 58
2019-07-31 14:00:00 23.4 6 Este 18 Norte 0 -- -- 55
2019-07-31 13:00:00 22.6 7 Nordeste 20 Nordeste 0 -- -- 56
2019-07-31 12:00:00 21.6 5 Este 13 Nordeste 0 -- -- 60
2019-07-31 11:00:00 17.1 0 Calma 0 Calma 0 -- -- 86
2019-07-31 10:00:00 14 0 Calma 0 Calma 0 -- -- 94
2019-07-31 09:00:00 13.2 0 Calma 0 Calma 0 -- -- 96
2019-07-31 08:00:00 12.9 0 Calma -- -- 0 -- -- 97
2019-07-31 07:00:00 12.7 0 Calma -- -- 0 -- -- 97
2019-07-31 06:00:00 12.7 0 Calma 4 Oeste 0 -- -- 97
2019-07-31 05:00:00 13 0 Calma 2 Oeste 0 -- -- 97
2019-07-31 04:00:00 13.1 0 Calma 4 Noroeste 0 -- -- 97
2019-07-31 03:00:00 13.2 0 Calma 2 Nordeste 0 -- -- 97
2019-07-31 02:00:00 12.6 0 Calma 2 Sudeste 0 -- -- 96
2019-07-31 01:00:00 12.7 0 Calma 3 Sudeste 0 -- -- 94
2019-07-31 00:00:00 13.5 0 Calma 6 Sudeste 0 -- -- 92
2019-07-30 23:00:00 14.6 0 Calma 4 Sudeste 0 -- -- 90
2019-07-30 22:00:00 16.7 2 Sudeste 7 Oeste 0 -- -- 84
2019-07-30 21:00:00 18.5 5 Oeste 9 Oeste 0 -- -- 76
2019-07-30 20:00:00 19.9 6 Noroeste 18 Oeste 0 -- -- 67
2019-07-30 19:00:00 20.9 8 Oeste 21 Noroeste 0 -- -- 63
2019-07-30 18:00:00 22.4 8 Oeste 27 Oeste 0 -- -- 57
2019-07-30 17:00:00 21.8 8 Noroeste 26 Oeste 0 -- -- 59
2019-07-30 16:00:00 22.7 11 Oeste 25 Oeste 0 -- -- 63
2019-07-30 15:00:00 20.8 7 Oeste 26 Oeste 0 -- -- 67
2019-07-30 14:00:00 20.8 12 Oeste 22 Oeste 0 -- -- 71
2019-07-30 13:00:00 18.7 2 Sudeste 27 Oeste 0.2 -- -- 78
2019-07-30 12:00:00 19.3 4 Sur 14 Noroeste 0.2 -- -- 82
2019-07-30 11:00:00 17.2 0 Calma 6 Sudoeste 1.2 -- -- 90
2019-07-30 10:00:00 17 0 Calma 6 Sudeste 0.6 -- -- 93
2019-07-30 09:00:00 16.7 0 Calma 5 Sudoeste 0.8 -- -- 94
2019-07-30 08:00:00 16.3 0 Calma 3 Sudeste 0.6 -- -- 95
2019-07-30 07:00:00 16.3 0 Calma 5 Noroeste 0.2 -- -- 95
2019-07-30 06:00:00 16.6 0 Calma 4 Nordeste 0 -- -- 94
2019-07-30 05:00:00 16.8 0 Calma 3 Noroeste 0 -- -- 94
2019-07-30 04:00:00 16.9 0 Calma 6 Nordeste 0.2 -- -- 93
2019-07-30 03:00:00 17.1 0 Calma 3 Este 0 -- -- 91
2019-07-30 02:00:00 17.2 0 Calma 2 Sur 0 -- -- 90
2019-07-30 01:00:00 17.6 0 Calma 18 Oeste 0 -- -- 86
2019-07-30 00:00:00 18.3 7 Oeste 19 Oeste 0 -- -- 83
2019-07-29 23:00:00 18.6 0 Calma 4 Este 0 -- -- 88
2019-07-29 22:00:00 19 0 Calma 4 Sur 0 -- -- 86
2019-07-29 21:00:00 20 2 Sudeste 10 Oeste 0 -- -- 80
2019-07-29 20:00:00 20.9 2 Oeste 13 Oeste 0 -- -- 72
2019-07-29 19:00:00 21.2 2 Norte 14 Norte 0 -- -- 73
2019-07-29 18:00:00 21.5 3 Noroeste 15 Norte 0 -- -- 76
2019-07-29 17:00:00 21.9 5 Norte 24 Oeste 0 -- -- 72
2019-07-29 16:00:00 23.3 6 Noroeste 21 Oeste 0 -- -- 71
2019-07-29 15:00:00 24.6 9 Noroeste 27 Noroeste 0 -- -- 69
2019-07-29 14:00:00 25.6 12 Noroeste 28 Noroeste 0 -- -- 66
2019-07-29 13:00:00 25.7 11 Nordeste 21 Nordeste 0 -- -- 63
2019-07-29 12:00:00 26 0 Calma 12 Norte 0 -- -- 57
2019-07-29 11:00:00 22.6 0 Calma -- -- 0 -- -- 70
2019-07-29 10:00:00 18.9 0 Calma -- -- 0 -- -- 78
2019-07-29 09:00:00 14.9 0 Calma 0 Calma 0 -- -- 92
2019-07-29 08:00:00 11.5 0 Calma -- -- 0 -- -- 98
2019-07-29 07:00:00 11.5 0 Calma -- -- 0 -- -- 97
2019-07-29 06:00:00 12 0 Calma -- -- 0 -- -- 97
2019-07-29 05:00:00 12.4 0 Calma -- -- 0 -- -- 97
2019-07-29 04:00:00 12.9 0 Calma -- -- 0 -- -- 97
2019-07-29 03:00:00 13.1 0 Calma 0 Calma 0 -- -- 97
2019-07-29 02:00:00 12.7 0 Calma 2 Sudeste 0 -- -- 96
2019-07-29 01:00:00 13.3 0 Calma 2 Sudeste 0 -- -- 95
2019-07-29 00:00:00 13.9 0 Calma 2 Sudeste 0 -- -- 93
2019-07-28 23:00:00 15.3 0 Calma 4 Sudeste 0 -- -- 91
2019-07-28 22:00:00 17.1 0 Calma 3 Norte 0 -- -- 87
2019-07-28 21:00:00 20.2 3 Noroeste 9 Este 0 -- -- 75
2019-07-28 20:00:00 21.9 4 Este 17 Norte 0 -- -- 63
2019-07-28 19:00:00 22.5 7 Noroeste 15 Noroeste 0 -- -- 63
2019-07-28 18:00:00 23.1 6 Norte 18 Noroeste 0 -- -- 62
2019-07-28 17:00:00 22.6 6 Noroeste 16 Noroeste 0 -- -- 65
2019-07-28 16:00:00 22.4 5 Norte 13 Noroeste 0 -- -- 65
2019-07-28 15:00:00 22.1 4 Noroeste 16 Noroeste 0 -- -- 67
2019-07-28 14:00:00 21.8 5 Noroeste 16 Norte 0 -- -- 70
2019-07-28 13:00:00 20.6 4 Noroeste 16 Oeste 0 -- -- 76
2019-07-28 12:00:00 20.1 3 Oeste 10 Oeste 0 -- -- 86
2019-07-28 11:00:00 18.7 0 Calma -- -- 0 -- -- 91
2019-07-28 10:00:00 16.3 0 Calma -- -- 0 -- -- 99
2019-07-28 09:00:00 15.5 0 Calma 5 Oeste 0 -- -- 99
2019-07-28 08:00:00 15.2 0 Calma 0 Calma 0 -- -- 99
2019-07-28 07:00:00 15 0 Calma 2 Este 2 -- -- 99
2019-07-28 06:00:00 14.9 0 Calma 6 Sudeste 4.4 -- -- 98
2019-07-28 05:00:00 14.6 0 Calma 4 Este 0 -- -- 98
2019-07-28 04:00:00 15.1 0 Calma 6 Sur 0.6 -- -- 98
2019-07-28 03:00:00 14.8 0 Calma 2 Este 0 -- -- 97
2019-07-28 02:00:00 15.8 2 Sudeste 6 Norte 2.8 -- -- 97
2019-07-28 01:00:00 15.7 0 Calma 4 Nordeste 1.4 -- -- 97
2019-07-28 00:00:00 16.1 0 Calma 3 Sur 0.2 -- -- 97
2019-07-27 23:00:00 16 0 Calma 6 Este 0 -- -- 96
2019-07-26 12:00:00 22.5 0 Calma 0 Calma 0 -- -- 90
2019-07-26 11:00:00 21.7 0 Calma 2 Noroeste 0 -- -- 93
2019-07-26 10:00:00 20.7 4 Oeste 12 Oeste 0.4 -- -- 96
2019-07-26 09:00:00 20.5 0 Calma 3 Oeste 0 -- -- 97
2019-07-26 08:00:00 20.1 0 Calma 10 Oeste 5.2 -- -- 97
2019-07-26 07:00:00 20.1 4 Sudoeste 13 Sudeste 6.2 -- -- 96
2019-07-26 06:00:00 20.4 3 Este 7 Sudoeste 0.6 -- -- 95
2019-07-26 05:00:00 20.5 2 Sur 6 Oeste 0 -- -- 94
2019-07-26 04:00:00 20.8 4 Noroeste 9 Oeste 1 -- -- 92
2019-07-26 03:00:00 21.4 0 Calma 2 Norte 0.2 -- -- 94
2019-07-26 02:00:00 21.3 0 Calma 5 Sur 0 -- -- 94
2019-07-26 01:00:00 21.5 2 Sur 18 Oeste 0 -- -- 91
2019-07-26 00:00:00 22.1 5 Oeste 13 Noroeste 0 -- -- 91